sensor_id;sensor_type;location;lat;lon;timestamp;P1;durP1;ratioP1;P2;durP2;ratioP2
22024;SDS011;11176;51.448;6.650;2022-07-23T00:01:04;6.00;;;3.63;;
22024;SDS011;11176;51.448;6.650;2022-07-23T00:03:31;5.07;;;3.28;;
22024;SDS011;11176;51.448;6.650;2022-07-23T00:05:57;5.90;;;3.40;;
22024;SDS011;11176;51.448;6.650;2022-07-23T00:08:24;6.13;;;4.05;;
22024;SDS011;11176;51.448;6.650;2022-07-23T00:10:50;7.80;;;3.92;;
22024;SDS011;11176;51.448;6.650;2022-07-23T00:13:19;6.35;;;3.58;;
22024;SDS011;11176;51.448;6.650;2022-07-23T00:15:45;6.72;;;3.85;;
22024;SDS011;11176;51.448;6.650;2022-07-23T00:18:12;5.88;;;3.88;;
22024;SDS011;11176;51.448;6.650;2022-07-23T00:20:40;6.60;;;4.10;;
22024;SDS011;11176;51.448;6.650;2022-07-23T00:23:07;5.00;;;3.33;;
22024;SDS011;11176;51.448;6.650;2022-07-23T00:25:34;7.57;;;4.03;;
22024;SDS011;11176;51.448;6.650;2022-07-23T00:28:01;5.68;;;3.30;;
22024;SDS011;11176;51.448;6.650;2022-07-23T00:30:28;6.97;;;3.60;;
22024;SDS011;11176;51.448;6.650;2022-07-23T00:32:56;5.82;;;3.60;;
22024;SDS011;11176;51.448;6.650;2022-07-23T00:35:25;5.45;;;3.70;;
22024;SDS011;11176;51.448;6.650;2022-07-23T00:37:54;5.57;;;3.85;;
22024;SDS011;11176;51.448;6.650;2022-07-23T00:40:21;7.97;;;3.42;;
22024;SDS011;11176;51.448;6.650;2022-07-23T00:42:48;4.47;;;3.28;;
22024;SDS011;11176;51.448;6.650;2022-07-23T00:45:15;6.20;;;3.72;;
22024;SDS011;11176;51.448;6.650;2022-07-23T00:47:42;7.22;;;3.53;;
22024;SDS011;11176;51.448;6.650;2022-07-23T00:50:08;5.90;;;3.67;;
22024;SDS011;11176;51.448;6.650;2022-07-23T00:52:36;5.53;;;3.63;;
22024;SDS011;11176;51.448;6.650;2022-07-23T00:55:04;6.57;;;3.80;;
22024;SDS011;11176;51.448;6.650;2022-07-23T00:57:32;6.20;;;3.47;;
22024;SDS011;11176;51.448;6.650;2022-07-23T00:59:59;7.15;;;3.35;;
22024;SDS011;11176;51.448;6.650;2022-07-23T01:02:26;4.47;;;3.47;;
22024;SDS011;11176;51.448;6.650;2022-07-23T01:04:53;4.55;;;3.38;;
22024;SDS011;11176;51.448;6.650;2022-07-23T01:07:20;5.07;;;3.30;;
22024;SDS011;11176;51.448;6.650;2022-07-23T01:09:47;4.78;;;3.53;;
22024;SDS011;11176;51.448;6.650;2022-07-23T01:12:15;5.90;;;3.40;;
22024;SDS011;11176;51.448;6.650;2022-07-23T01:14:42;6.78;;;3.75;;
22024;SDS011;11176;51.448;6.650;2022-07-23T01:17:09;5.55;;;3.35;;
22024;SDS011;11176;51.448;6.650;2022-07-23T01:19:36;6.53;;;3.55;;
22024;SDS011;11176;51.448;6.650;2022-07-23T01:22:03;4.25;;;3.22;;
22024;SDS011;11176;51.448;6.650;2022-07-23T01:24:30;6.72;;;3.88;;
22024;SDS011;11176;51.448;6.650;2022-07-23T01:27:02;6.30;;;3.90;;
22024;SDS011;11176;51.448;6.650;2022-07-23T01:29:33;6.13;;;3.70;;
22024;SDS011;11176;51.448;6.650;2022-07-23T01:32:04;7.53;;;3.38;;
22024;SDS011;11176;51.448;6.650;2022-07-23T01:34:32;5.78;;;3.30;;
22024;SDS011;11176;51.448;6.650;2022-07-23T01:36:58;6.07;;;3.65;;
22024;SDS011;11176;51.448;6.650;2022-07-23T01:39:25;5.32;;;3.55;;
22024;SDS011;11176;51.448;6.650;2022-07-23T01:41:52;5.90;;;3.70;;
22024;SDS011;11176;51.448;6.650;2022-07-23T01:44:19;5.85;;;3.95;;
22024;SDS011;11176;51.448;6.650;2022-07-23T01:46:47;5.97;;;3.88;;
22024;SDS011;11176;51.448;6.650;2022-07-23T01:49:14;5.15;;;3.70;;
22024;SDS011;11176;51.448;6.650;2022-07-23T01:51:59;6.18;;;3.72;;
22024;SDS011;11176;51.448;6.650;2022-07-23T01:54:38;6.13;;;3.83;;
22024;SDS011;11176;51.448;6.650;2022-07-23T01:57:07;6.93;;;3.78;;
22024;SDS011;11176;51.448;6.650;2022-07-23T01:59:34;4.70;;;3.53;;
22024;SDS011;11176;51.448;6.650;2022-07-23T02:02:03;7.72;;;4.50;;
22024;SDS011;11176;51.448;6.650;2022-07-23T02:04:30;7.45;;;3.90;;
22024;SDS011;11176;51.448;6.650;2022-07-23T02:06:58;6.00;;;4.40;;
22024;SDS011;11176;51.448;6.650;2022-07-23T02:09:26;6.13;;;4.35;;
22024;SDS011;11176;51.448;6.650;2022-07-23T02:11:52;5.90;;;3.75;;
22024;SDS011;11176;51.448;6.650;2022-07-23T02:14:19;5.25;;;3.80;;
22024;SDS011;11176;51.448;6.650;2022-07-23T02:16:45;8.68;;;4.22;;
22024;SDS011;11176;51.448;6.650;2022-07-23T02:19:13;6.80;;;4.75;;
22024;SDS011;11176;51.448;6.650;2022-07-23T02:21:40;6.72;;;4.30;;
22024;SDS011;11176;51.448;6.650;2022-07-23T02:24:07;5.97;;;4.25;;
22024;SDS011;11176;51.448;6.650;2022-07-23T02:26:36;6.90;;;4.40;;
22024;SDS011;11176;51.448;6.650;2022-07-23T02:29:05;6.85;;;4.40;;
22024;SDS011;11176;51.448;6.650;2022-07-23T02:31:32;6.35;;;4.38;;
22024;SDS011;11176;51.448;6.650;2022-07-23T02:33:58;6.95;;;4.18;;
22024;SDS011;11176;51.448;6.650;2022-07-23T02:36:26;7.22;;;4.45;;
22024;SDS011;11176;51.448;6.650;2022-07-23T02:38:53;5.85;;;4.05;;
22024;SDS011;11176;51.448;6.650;2022-07-23T02:41:19;7.57;;;4.60;;
22024;SDS011;11176;51.448;6.650;2022-07-23T02:43:46;7.78;;;4.72;;
22024;SDS011;11176;51.448;6.650;2022-07-23T02:46:14;6.15;;;4.55;;
22024;SDS011;11176;51.448;6.650;2022-07-23T02:48:41;6.75;;;4.32;;
22024;SDS011;11176;51.448;6.650;2022-07-23T02:51:08;9.02;;;4.93;;
22024;SDS011;11176;51.448;6.650;2022-07-23T02:53:43;6.32;;;4.45;;
22024;SDS011;11176;51.448;6.650;2022-07-23T02:56:09;9.38;;;4.78;;
22024;SDS011;11176;51.448;6.650;2022-07-23T02:58:36;6.70;;;4.40;;
22024;SDS011;11176;51.448;6.650;2022-07-23T03:01:03;7.65;;;4.88;;
22024;SDS011;11176;51.448;6.650;2022-07-23T03:03:29;7.13;;;4.22;;
22024;SDS011;11176;51.448;6.650;2022-07-23T03:05:56;6.60;;;4.50;;
22024;SDS011;11176;51.448;6.650;2022-07-23T03:08:23;8.20;;;4.80;;
22024;SDS011;11176;51.448;6.650;2022-07-23T03:10:51;6.22;;;4.72;;
22024;SDS011;11176;51.448;6.650;2022-07-23T03:13:17;7.80;;;5.30;;
22024;SDS011;11176;51.448;6.650;2022-07-23T03:15:44;7.13;;;4.80;;
22024;SDS011;11176;51.448;6.650;2022-07-23T03:18:10;8.32;;;4.97;;
22024;SDS011;11176;51.448;6.650;2022-07-23T03:20:37;8.07;;;5.50;;
22024;SDS011;11176;51.448;6.650;2022-07-23T03:23:04;7.65;;;5.13;;
22024;SDS011;11176;51.448;6.650;2022-07-23T03:25:31;7.60;;;4.38;;
22024;SDS011;11176;51.448;6.650;2022-07-23T03:27:57;6.68;;;5.30;;
22024;SDS011;11176;51.448;6.650;2022-07-23T03:30:26;7.65;;;5.70;;
22024;SDS011;11176;51.448;6.650;2022-07-23T03:32:53;9.63;;;5.45;;
22024;SDS011;11176;51.448;6.650;2022-07-23T03:35:19;7.47;;;5.40;;
22024;SDS011;11176;51.448;6.650;2022-07-23T03:38:04;7.93;;;5.28;;
22024;SDS011;11176;51.448;6.650;2022-07-23T03:40:31;8.07;;;4.85;;
22024;SDS011;11176;51.448;6.650;2022-07-23T03:42:57;7.95;;;5.28;;
22024;SDS011;11176;51.448;6.650;2022-07-23T03:45:24;7.88;;;5.35;;
22024;SDS011;11176;51.448;6.650;2022-07-23T03:47:50;8.68;;;5.65;;
22024;SDS011;11176;51.448;6.650;2022-07-23T03:50:17;8.48;;;5.50;;
22024;SDS011;11176;51.448;6.650;2022-07-23T03:52:44;6.82;;;5.20;;
22024;SDS011;11176;51.448;6.650;2022-07-23T03:55:11;8.25;;;5.45;;
22024;SDS011;11176;51.448;6.650;2022-07-23T03:57:37;7.22;;;5.22;;
22024;SDS011;11176;51.448;6.650;2022-07-23T04:00:04;5.93;;;5.10;;
22024;SDS011;11176;51.448;6.650;2022-07-23T04:02:38;6.68;;;4.63;;
22024;SDS011;11176;51.448;6.650;2022-07-23T04:05:06;8.20;;;5.28;;
22024;SDS011;11176;51.448;6.650;2022-07-23T04:07:33;7.13;;;5.43;;
22024;SDS011;11176;51.448;6.650;2022-07-23T04:10:00;7.25;;;5.57;;
22024;SDS011;11176;51.448;6.650;2022-07-23T04:12:26;8.30;;;5.70;;
22024;SDS011;11176;51.448;6.650;2022-07-23T04:14:53;7.43;;;5.90;;
22024;SDS011;11176;51.448;6.650;2022-07-23T04:17:20;6.35;;;5.03;;
22024;SDS011;11176;51.448;6.650;2022-07-23T04:19:46;7.07;;;5.45;;
22024;SDS011;11176;51.448;6.650;2022-07-23T04:22:17;11.18;;;6.55;;
22024;SDS011;11176;51.448;6.650;2022-07-23T04:24:43;7.78;;;5.38;;
22024;SDS011;11176;51.448;6.650;2022-07-23T04:27:10;10.05;;;6.00;;
22024;SDS011;11176;51.448;6.650;2022-07-23T04:29:36;7.00;;;5.68;;
22024;SDS011;11176;51.448;6.650;2022-07-23T04:32:03;9.10;;;5.85;;
22024;SDS011;11176;51.448;6.650;2022-07-23T04:34:30;8.38;;;5.88;;
22024;SDS011;11176;51.448;6.650;2022-07-23T04:36:57;8.20;;;5.70;;
22024;SDS011;11176;51.448;6.650;2022-07-23T04:39:25;9.00;;;5.75;;
22024;SDS011;11176;51.448;6.650;2022-07-23T04:41:52;8.50;;;6.35;;
22024;SDS011;11176;51.448;6.650;2022-07-23T04:44:18;9.02;;;6.75;;
22024;SDS011;11176;51.448;6.650;2022-07-23T04:46:46;9.80;;;6.00;;
22024;SDS011;11176;51.448;6.650;2022-07-23T04:49:16;8.88;;;5.97;;
22024;SDS011;11176;51.448;6.650;2022-07-23T04:51:44;8.93;;;6.30;;
22024;SDS011;11176;51.448;6.650;2022-07-23T04:54:11;8.23;;;6.18;;
22024;SDS011;11176;51.448;6.650;2022-07-23T04:56:37;7.25;;;5.85;;
22024;SDS011;11176;51.448;6.650;2022-07-23T04:59:04;9.15;;;6.18;;
22024;SDS011;11176;51.448;6.650;2022-07-23T05:01:31;9.90;;;6.75;;
22024;SDS011;11176;51.448;6.650;2022-07-23T05:03:57;9.15;;;7.00;;
22024;SDS011;11176;51.448;6.650;2022-07-23T05:06:28;10.95;;;6.82;;
22024;SDS011;11176;51.448;6.650;2022-07-23T05:08:55;10.13;;;6.65;;
22024;SDS011;11176;51.448;6.650;2022-07-23T05:11:22;9.18;;;6.93;;
22024;SDS011;11176;51.448;6.650;2022-07-23T05:13:52;11.07;;;7.15;;
22024;SDS011;11176;51.448;6.650;2022-07-23T05:16:20;11.38;;;7.57;;
22024;SDS011;11176;51.448;6.650;2022-07-23T05:18:47;7.93;;;6.60;;
22024;SDS011;11176;51.448;6.650;2022-07-23T05:21:13;8.23;;;7.03;;
22024;SDS011;11176;51.448;6.650;2022-07-23T05:23:40;10.13;;;7.32;;
22024;SDS011;11176;51.448;6.650;2022-07-23T05:26:06;11.38;;;7.85;;
22024;SDS011;11176;51.448;6.650;2022-07-23T05:28:33;13.07;;;8.05;;
22024;SDS011;11176;51.448;6.650;2022-07-23T05:31:00;9.00;;;7.10;;
22024;SDS011;11176;51.448;6.650;2022-07-23T05:33:28;13.10;;;7.40;;
22024;SDS011;11176;51.448;6.650;2022-07-23T05:35:59;10.23;;;7.13;;
22024;SDS011;11176;51.448;6.650;2022-07-23T05:38:28;10.55;;;7.20;;
22024;SDS011;11176;51.448;6.650;2022-07-23T05:40:58;12.40;;;8.13;;
22024;SDS011;11176;51.448;6.650;2022-07-23T05:43:25;11.55;;;7.35;;
22024;SDS011;11176;51.448;6.650;2022-07-23T05:45:52;10.63;;;7.93;;
22024;SDS011;11176;51.448;6.650;2022-07-23T05:48:20;13.30;;;8.43;;
22024;SDS011;11176;51.448;6.650;2022-07-23T05:50:58;12.48;;;8.45;;
22024;SDS011;11176;51.448;6.650;2022-07-23T05:53:29;10.48;;;8.05;;
22024;SDS011;11176;51.448;6.650;2022-07-23T05:56:18;12.45;;;8.48;;
22024;SDS011;11176;51.448;6.650;2022-07-23T05:58:45;12.23;;;7.90;;
22024;SDS011;11176;51.448;6.650;2022-07-23T06:01:14;11.00;;;7.68;;
22024;SDS011;11176;51.448;6.650;2022-07-23T06:03:48;10.73;;;7.40;;
22024;SDS011;11176;51.448;6.650;2022-07-23T06:06:15;11.15;;;7.88;;
22024;SDS011;11176;51.448;6.650;2022-07-23T06:08:42;11.70;;;8.23;;
22024;SDS011;11176;51.448;6.650;2022-07-23T06:11:09;10.45;;;7.95;;
22024;SDS011;11176;51.448;6.650;2022-07-23T06:13:37;10.75;;;7.85;;
22024;SDS011;11176;51.448;6.650;2022-07-23T06:16:03;12.30;;;8.02;;
22024;SDS011;11176;51.448;6.650;2022-07-23T06:18:30;12.15;;;8.05;;
22024;SDS011;11176;51.448;6.650;2022-07-23T06:20:57;11.95;;;7.63;;
22024;SDS011;11176;51.448;6.650;2022-07-23T06:23:26;10.88;;;7.45;;
22024;SDS011;11176;51.448;6.650;2022-07-23T06:25:52;13.23;;;8.05;;
22024;SDS011;11176;51.448;6.650;2022-07-23T06:28:19;11.27;;;8.30;;
22024;SDS011;11176;51.448;6.650;2022-07-23T06:30:45;10.90;;;8.13;;
22024;SDS011;11176;51.448;6.650;2022-07-23T06:33:12;10.45;;;7.43;;
22024;SDS011;11176;51.448;6.650;2022-07-23T06:35:38;10.27;;;7.32;;
22024;SDS011;11176;51.448;6.650;2022-07-23T06:38:06;13.23;;;9.38;;
22024;SDS011;11176;51.448;6.650;2022-07-23T06:40:33;12.77;;;9.43;;
22024;SDS011;11176;51.448;6.650;2022-07-23T06:43:01;12.50;;;9.50;;
22024;SDS011;11176;51.448;6.650;2022-07-23T06:45:28;12.88;;;8.90;;
22024;SDS011;11176;51.448;6.650;2022-07-23T06:47:55;12.98;;;8.75;;
22024;SDS011;11176;51.448;6.650;2022-07-23T06:50:22;9.85;;;8.02;;
22024;SDS011;11176;51.448;6.650;2022-07-23T06:52:48;11.48;;;8.07;;
22024;SDS011;11176;51.448;6.650;2022-07-23T06:55:15;9.98;;;7.57;;
22024;SDS011;11176;51.448;6.650;2022-07-23T06:57:44;9.93;;;7.97;;
22024;SDS011;11176;51.448;6.650;2022-07-23T07:00:10;12.25;;;8.38;;
22024;SDS011;11176;51.448;6.650;2022-07-23T07:02:37;13.35;;;7.50;;
22024;SDS011;11176;51.448;6.650;2022-07-23T07:05:04;11.82;;;7.47;;
22024;SDS011;11176;51.448;6.650;2022-07-23T07:07:32;9.02;;;6.70;;
22024;SDS011;11176;51.448;6.650;2022-07-23T07:09:59;11.93;;;6.93;;
22024;SDS011;11176;51.448;6.650;2022-07-23T07:12:26;11.05;;;7.13;;
22024;SDS011;11176;51.448;6.650;2022-07-23T07:14:53;8.45;;;6.15;;
22024;SDS011;11176;51.448;6.650;2022-07-23T07:17:19;10.00;;;7.53;;
22024;SDS011;11176;51.448;6.650;2022-07-23T07:19:46;11.13;;;6.75;;
22024;SDS011;11176;51.448;6.650;2022-07-23T07:22:12;10.45;;;6.85;;
22024;SDS011;11176;51.448;6.650;2022-07-23T07:24:39;10.13;;;6.25;;
22024;SDS011;11176;51.448;6.650;2022-07-23T07:27:06;11.32;;;6.57;;
22024;SDS011;11176;51.448;6.650;2022-07-23T07:29:32;10.00;;;6.13;;
22024;SDS011;11176;51.448;6.650;2022-07-23T07:31:59;9.38;;;6.15;;
22024;SDS011;11176;51.448;6.650;2022-07-23T07:34:25;9.98;;;5.80;;
22024;SDS011;11176;51.448;6.650;2022-07-23T07:36:52;6.35;;;4.57;;
22024;SDS011;11176;51.448;6.650;2022-07-23T07:39:19;9.68;;;4.40;;
22024;SDS011;11176;51.448;6.650;2022-07-23T07:41:46;8.35;;;4.38;;
22024;SDS011;11176;51.448;6.650;2022-07-23T07:44:12;8.65;;;4.47;;
22024;SDS011;11176;51.448;6.650;2022-07-23T07:46:39;6.25;;;3.80;;
22024;SDS011;11176;51.448;6.650;2022-07-23T07:49:05;6.00;;;3.15;;
22024;SDS011;11176;51.448;6.650;2022-07-23T07:51:32;7.07;;;3.83;;
22024;SDS011;11176;51.448;6.650;2022-07-23T07:54:00;8.45;;;3.70;;
22024;SDS011;11176;51.448;6.650;2022-07-23T07:56:27;6.03;;;4.13;;
22024;SDS011;11176;51.448;6.650;2022-07-23T07:58:54;7.80;;;4.15;;
22024;SDS011;11176;51.448;6.650;2022-07-23T08:01:20;7.03;;;4.10;;
22024;SDS011;11176;51.448;6.650;2022-07-23T08:03:48;8.35;;;4.53;;
22024;SDS011;11176;51.448;6.650;2022-07-23T08:06:14;7.38;;;4.53;;
22024;SDS011;11176;51.448;6.650;2022-07-23T08:08:41;10.07;;;4.53;;
22024;SDS011;11176;51.448;6.650;2022-07-23T08:11:07;8.73;;;4.35;;
22024;SDS011;11176;51.448;6.650;2022-07-23T08:13:34;9.30;;;4.45;;
22024;SDS011;11176;51.448;6.650;2022-07-23T08:16:00;7.55;;;4.38;;
22024;SDS011;11176;51.448;6.650;2022-07-23T08:18:27;7.75;;;4.80;;
22024;SDS011;11176;51.448;6.650;2022-07-23T08:20:53;10.13;;;4.68;;
22024;SDS011;11176;51.448;6.650;2022-07-23T08:23:20;7.88;;;4.47;;
22024;SDS011;11176;51.448;6.650;2022-07-23T08:25:53;7.15;;;4.38;;
22024;SDS011;11176;51.448;6.650;2022-07-23T08:28:19;10.13;;;5.10;;
22024;SDS011;11176;51.448;6.650;2022-07-23T08:30:46;8.10;;;3.88;;
22024;SDS011;11176;51.448;6.650;2022-07-23T08:33:13;6.45;;;4.40;;
22024;SDS011;11176;51.448;6.650;2022-07-23T08:36:00;6.68;;;4.50;;
22024;SDS011;11176;51.448;6.650;2022-07-23T08:38:29;6.05;;;4.05;;
22024;SDS011;11176;51.448;6.650;2022-07-23T08:40:56;8.00;;;4.13;;
22024;SDS011;11176;51.448;6.650;2022-07-23T08:43:26;9.95;;;4.10;;
22024;SDS011;11176;51.448;6.650;2022-07-23T08:45:55;8.70;;;4.15;;
22024;SDS011;11176;51.448;6.650;2022-07-23T08:48:26;9.13;;;4.35;;
22024;SDS011;11176;51.448;6.650;2022-07-23T08:50:55;7.28;;;3.53;;
22024;SDS011;11176;51.448;6.650;2022-07-23T08:53:24;6.15;;;3.88;;
22024;SDS011;11176;51.448;6.650;2022-07-23T08:55:53;6.18;;;3.88;;
22024;SDS011;11176;51.448;6.650;2022-07-23T08:58:22;6.07;;;3.53;;
22024;SDS011;11176;51.448;6.650;2022-07-23T09:00:53;7.55;;;3.97;;
22024;SDS011;11176;51.448;6.650;2022-07-23T09:03:26;5.35;;;3.42;;
22024;SDS011;11176;51.448;6.650;2022-07-23T09:05:54;5.95;;;2.70;;
22024;SDS011;11176;51.448;6.650;2022-07-23T09:08:24;7.28;;;3.40;;
22024;SDS011;11176;51.448;6.650;2022-07-23T09:11:00;4.32;;;2.70;;
22024;SDS011;11176;51.448;6.650;2022-07-23T09:13:47;7.18;;;2.60;;
22024;SDS011;11176;51.448;6.650;2022-07-23T09:16:16;4.22;;;2.25;;
22024;SDS011;11176;51.448;6.650;2022-07-23T09:19:00;4.88;;;2.47;;
22024;SDS011;11176;51.448;6.650;2022-07-23T09:21:35;4.13;;;2.13;;
22024;SDS011;11176;51.448;6.650;2022-07-23T09:24:09;3.95;;;2.60;;
22024;SDS011;11176;51.448;6.650;2022-07-23T09:26:42;3.92;;;2.20;;
22024;SDS011;11176;51.448;6.650;2022-07-23T09:29:15;4.05;;;2.38;;
22024;SDS011;11176;51.448;6.650;2022-07-23T09:31:54;4.38;;;2.42;;
22024;SDS011;11176;51.448;6.650;2022-07-23T09:34:26;5.65;;;2.78;;
22024;SDS011;11176;51.448;6.650;2022-07-23T09:36:55;6.72;;;2.75;;
22024;SDS011;11176;51.448;6.650;2022-07-23T09:41:55;3.90;;;2.20;;
22024;SDS011;11176;51.448;6.650;2022-07-23T09:44:22;4.85;;;1.70;;
22024;SDS011;11176;51.448;6.650;2022-07-23T09:46:57;5.68;;;2.42;;
22024;SDS011;11176;51.448;6.650;2022-07-23T09:49:24;4.13;;;2.00;;
22024;SDS011;11176;51.448;6.650;2022-07-23T09:56:59;3.65;;;1.77;;
22024;SDS011;11176;51.448;6.650;2022-07-23T09:59:28;4.43;;;2.22;;
22024;SDS011;11176;51.448;6.650;2022-07-23T10:01:57;4.57;;;2.10;;
22024;SDS011;11176;51.448;6.650;2022-07-23T10:04:27;5.03;;;2.10;;
22024;SDS011;11176;51.448;6.650;2022-07-23T10:07:14;5.68;;;2.20;;
22024;SDS011;11176;51.448;6.650;2022-07-23T10:10:05;4.10;;;2.28;;
22024;SDS011;11176;51.448;6.650;2022-07-23T10:13:01;4.35;;;2.58;;
22024;SDS011;11176;51.448;6.650;2022-07-23T10:15:51;3.22;;;2.17;;
22024;SDS011;11176;51.448;6.650;2022-07-23T10:18:17;3.78;;;2.00;;
22024;SDS011;11176;51.448;6.650;2022-07-23T10:20:46;4.22;;;2.20;;
22024;SDS011;11176;51.448;6.650;2022-07-23T10:23:24;4.53;;;2.15;;
22024;SDS011;11176;51.448;6.650;2022-07-23T10:28:52;4.43;;;1.90;;
22024;SDS011;11176;51.448;6.650;2022-07-23T10:31:28;4.68;;;1.67;;
22024;SDS011;11176;51.448;6.650;2022-07-23T10:34:27;2.83;;;1.90;;
22024;SDS011;11176;51.448;6.650;2022-07-23T10:37:02;3.50;;;2.10;;
22024;SDS011;11176;51.448;6.650;2022-07-23T10:39:34;2.83;;;1.80;;
22024;SDS011;11176;51.448;6.650;2022-07-23T10:42:08;3.00;;;2.17;;
22024;SDS011;11176;51.448;6.650;2022-07-23T10:44:42;3.35;;;2.17;;
22024;SDS011;11176;51.448;6.650;2022-07-23T10:47:10;3.72;;;2.20;;
22024;SDS011;11176;51.448;6.650;2022-07-23T10:50:16;6.53;;;2.40;;
22024;SDS011;11176;51.448;6.650;2022-07-23T10:58:01;5.18;;;1.90;;
22024;SDS011;11176;51.448;6.650;2022-07-23T11:00:30;3.00;;;1.98;;
22024;SDS011;11176;51.448;6.650;2022-07-23T11:03:01;3.78;;;1.80;;
22024;SDS011;11176;51.448;6.650;2022-07-23T11:10:44;2.92;;;1.20;;
22024;SDS011;11176;51.448;6.650;2022-07-23T11:24:07;2.42;;;1.30;;
22024;SDS011;11176;51.448;6.650;2022-07-23T11:26:54;2.30;;;1.50;;
22024;SDS011;11176;51.448;6.650;2022-07-23T11:31:58;2.55;;;1.00;;
22024;SDS011;11176;51.448;6.650;2022-07-23T11:37:05;2.33;;;1.15;;
22024;SDS011;11176;51.448;6.650;2022-07-23T11:39:33;3.10;;;1.27;;
22024;SDS011;11176;51.448;6.650;2022-07-23T11:42:01;3.00;;;1.30;;
22024;SDS011;11176;51.448;6.650;2022-07-23T11:44:40;5.25;;;1.27;;
22024;SDS011;11176;51.448;6.650;2022-07-23T11:47:07;2.08;;;1.05;;
22024;SDS011;11176;51.448;6.650;2022-07-23T11:49:35;2.80;;;1.58;;
22024;SDS011;11176;51.448;6.650;2022-07-23T11:54:33;2.88;;;1.23;;
22024;SDS011;11176;51.448;6.650;2022-07-23T11:57:05;2.58;;;0.95;;
22024;SDS011;11176;51.448;6.650;2022-07-23T11:59:32;3.47;;;1.35;;
22024;SDS011;11176;51.448;6.650;2022-07-23T12:02:02;4.15;;;1.27;;
22024;SDS011;11176;51.448;6.650;2022-07-23T12:04:44;2.65;;;1.15;;
22024;SDS011;11176;51.448;6.650;2022-07-23T12:10:30;2.60;;;1.05;;
22024;SDS011;11176;51.448;6.650;2022-07-23T12:13:00;1.40;;;0.70;;
22024;SDS011;11176;51.448;6.650;2022-07-23T12:15:33;2.17;;;1.00;;
22024;SDS011;11176;51.448;6.650;2022-07-23T12:18:06;3.05;;;1.02;;
22024;SDS011;11176;51.448;6.650;2022-07-23T12:20:35;1.20;;;0.60;;
22024;SDS011;11176;51.448;6.650;2022-07-23T12:23:05;1.65;;;0.73;;
22024;SDS011;11176;51.448;6.650;2022-07-23T12:25:35;1.70;;;1.00;;
22024;SDS011;11176;51.448;6.650;2022-07-23T12:28:07;6.13;;;5.15;;
22024;SDS011;11176;51.448;6.650;2022-07-23T12:30:40;4.57;;;3.05;;
22024;SDS011;11176;51.448;6.650;2022-07-23T12:33:09;2.78;;;1.50;;
22024;SDS011;11176;51.448;6.650;2022-07-23T12:35:39;3.33;;;1.50;;
22024;SDS011;11176;51.448;6.650;2022-07-23T12:38:18;1.65;;;0.90;;
22024;SDS011;11176;51.448;6.650;2022-07-23T12:40:47;3.33;;;1.05;;
22024;SDS011;11176;51.448;6.650;2022-07-23T12:43:27;2.10;;;1.10;;
22024;SDS011;11176;51.448;6.650;2022-07-23T12:51:21;2.85;;;0.80;;
22024;SDS011;11176;51.448;6.650;2022-07-23T12:54:05;2.50;;;1.10;;
22024;SDS011;11176;51.448;6.650;2022-07-23T12:56:34;2.75;;;1.13;;
22024;SDS011;11176;51.448;6.650;2022-07-23T13:01:44;3.15;;;1.10;;
22024;SDS011;11176;51.448;6.650;2022-07-23T13:04:20;2.95;;;1.90;;
22024;SDS011;11176;51.448;6.650;2022-07-23T13:06:50;2.13;;;0.70;;
22024;SDS011;11176;51.448;6.650;2022-07-23T13:09:18;3.55;;;1.00;;
22024;SDS011;11176;51.448;6.650;2022-07-23T13:11:47;2.65;;;1.00;;
22024;SDS011;11176;51.448;6.650;2022-07-23T13:14:14;1.63;;;0.88;;
22024;SDS011;11176;51.448;6.650;2022-07-23T13:16:42;2.00;;;0.90;;
22024;SDS011;11176;51.448;6.650;2022-07-23T13:19:10;3.38;;;2.10;;
22024;SDS011;11176;51.448;6.650;2022-07-23T13:21:38;3.17;;;0.80;;
22024;SDS011;11176;51.448;6.650;2022-07-23T13:24:06;2.15;;;1.00;;
22024;SDS011;11176;51.448;6.650;2022-07-23T13:26:35;2.88;;;1.00;;
22024;SDS011;11176;51.448;6.650;2022-07-23T13:29:03;3.30;;;0.90;;
22024;SDS011;11176;51.448;6.650;2022-07-23T13:31:36;2.30;;;1.02;;
22024;SDS011;11176;51.448;6.650;2022-07-23T13:34:04;4.55;;;1.27;;
22024;SDS011;11176;51.448;6.650;2022-07-23T13:36:33;2.38;;;1.10;;
22024;SDS011;11176;51.448;6.650;2022-07-23T13:39:01;2.40;;;1.20;;
22024;SDS011;11176;51.448;6.650;2022-07-23T13:41:28;4.72;;;1.15;;
22024;SDS011;11176;51.448;6.650;2022-07-23T13:43:55;3.38;;;1.00;;
22024;SDS011;11176;51.448;6.650;2022-07-23T13:46:23;2.00;;;0.90;;
22024;SDS011;11176;51.448;6.650;2022-07-23T13:48:50;1.77;;;0.70;;
22024;SDS011;11176;51.448;6.650;2022-07-23T13:51:17;4.07;;;1.00;;
22024;SDS011;11176;51.448;6.650;2022-07-23T13:53:45;2.20;;;1.10;;
22024;SDS011;11176;51.448;6.650;2022-07-23T13:56:12;2.78;;;1.25;;
22024;SDS011;11176;51.448;6.650;2022-07-23T13:58:39;2.85;;;1.10;;
22024;SDS011;11176;51.448;6.650;2022-07-23T14:01:06;1.83;;;1.02;;
22024;SDS011;11176;51.448;6.650;2022-07-23T14:03:33;2.40;;;1.02;;
22024;SDS011;11176;51.448;6.650;2022-07-23T14:06:00;4.28;;;1.10;;
22024;SDS011;11176;51.448;6.650;2022-07-23T14:08:26;2.15;;;1.13;;
22024;SDS011;11176;51.448;6.650;2022-07-23T14:10:53;1.40;;;0.80;;
22024;SDS011;11176;51.448;6.650;2022-07-23T14:13:20;2.22;;;0.70;;
22024;SDS011;11176;51.448;6.650;2022-07-23T14:15:47;2.63;;;1.10;;
22024;SDS011;11176;51.448;6.650;2022-07-23T14:18:15;2.50;;;1.20;;
22024;SDS011;11176;51.448;6.650;2022-07-23T14:20:42;2.97;;;0.88;;
22024;SDS011;11176;51.448;6.650;2022-07-23T14:23:09;2.10;;;1.00;;
22024;SDS011;11176;51.448;6.650;2022-07-23T14:25:38;2.92;;;0.98;;
22024;SDS011;11176;51.448;6.650;2022-07-23T14:28:05;2.38;;;1.00;;
22024;SDS011;11176;51.448;6.650;2022-07-23T14:30:31;1.98;;;0.90;;
22024;SDS011;11176;51.448;6.650;2022-07-23T14:33:00;2.90;;;1.38;;
22024;SDS011;11176;51.448;6.650;2022-07-23T14:35:27;3.78;;;1.55;;
22024;SDS011;11176;51.448;6.650;2022-07-23T14:37:53;2.80;;;1.40;;
22024;SDS011;11176;51.448;6.650;2022-07-23T14:40:20;3.05;;;1.60;;
22024;SDS011;11176;51.448;6.650;2022-07-23T14:42:50;2.38;;;1.10;;
22024;SDS011;11176;51.448;6.650;2022-07-23T14:45:17;2.70;;;1.50;;
22024;SDS011;11176;51.448;6.650;2022-07-23T14:47:44;3.17;;;1.20;;
22024;SDS011;11176;51.448;6.650;2022-07-23T14:50:13;1.30;;;0.77;;
22024;SDS011;11176;51.448;6.650;2022-07-23T14:52:40;3.83;;;1.17;;
22024;SDS011;11176;51.448;6.650;2022-07-23T14:55:07;1.90;;;0.90;;
22024;SDS011;11176;51.448;6.650;2022-07-23T14:57:34;6.68;;;1.30;;
22024;SDS011;11176;51.448;6.650;2022-07-23T15:00:02;1.98;;;0.98;;
22024;SDS011;11176;51.448;6.650;2022-07-23T15:02:30;1.75;;;0.85;;
22024;SDS011;11176;51.448;6.650;2022-07-23T15:04:57;2.17;;;1.25;;
22024;SDS011;11176;51.448;6.650;2022-07-23T15:07:27;2.88;;;1.15;;
22024;SDS011;11176;51.448;6.650;2022-07-23T15:09:55;2.38;;;1.10;;
22024;SDS011;11176;51.448;6.650;2022-07-23T15:12:23;3.45;;;1.20;;
22024;SDS011;11176;51.448;6.650;2022-07-23T15:14:51;3.08;;;1.52;;
22024;SDS011;11176;51.448;6.650;2022-07-23T15:17:17;2.38;;;1.08;;
22024;SDS011;11176;51.448;6.650;2022-07-23T15:19:46;1.50;;;0.90;;
22024;SDS011;11176;51.448;6.650;2022-07-23T15:22:14;2.67;;;0.90;;
22024;SDS011;11176;51.448;6.650;2022-07-23T15:24:41;2.15;;;1.30;;
22024;SDS011;11176;51.448;6.650;2022-07-23T15:27:08;3.08;;;1.40;;
22024;SDS011;11176;51.448;6.650;2022-07-23T15:29:35;3.22;;;1.50;;
22024;SDS011;11176;51.448;6.650;2022-07-23T15:32:02;3.95;;;1.48;;
22024;SDS011;11176;51.448;6.650;2022-07-23T15:34:29;4.68;;;1.70;;
22024;SDS011;11176;51.448;6.650;2022-07-23T15:36:59;2.67;;;1.13;;
22024;SDS011;11176;51.448;6.650;2022-07-23T15:39:27;3.15;;;1.45;;
22024;SDS011;11176;51.448;6.650;2022-07-23T15:41:54;6.00;;;1.40;;
22024;SDS011;11176;51.448;6.650;2022-07-23T15:44:23;2.50;;;1.50;;
22024;SDS011;11176;51.448;6.650;2022-07-23T15:46:55;2.67;;;1.50;;